sensor_id;sensor_type;location;lat;lon;timestamp;pressure;altitude;pressure_sealevel;temperature;humidity
34712;BME280;20941;42.408;25.634;2022-10-16T00:02:12;100264.38;;;10.37;81.99
34712;BME280;20941;42.408;25.634;2022-10-16T00:04:37;100265.25;;;10.37;81.78
34712;BME280;20941;42.408;25.634;2022-10-16T00:07:03;100262.38;;;10.42;81.28
34712;BME280;20941;42.408;25.634;2022-10-16T00:09:28;100260.97;;;10.45;80.94
34712;BME280;20941;42.408;25.634;2022-10-16T00:11:53;100266.59;;;10.45;80.92
34712;BME280;20941;42.408;25.634;2022-10-16T00:14:19;100271.03;;;10.51;80.41
34712;BME280;20941;42.408;25.634;2022-10-16T00:16:44;100264.84;;;10.49;80.21
34712;BME280;20941;42.408;25.634;2022-10-16T00:19:10;100270.16;;;10.51;80.13
34712;BME280;20941;42.408;25.634;2022-10-16T00:21:37;100268.25;;;10.46;80.30
34712;BME280;20941;42.408;25.634;2022-10-16T00:24:03;100270.53;;;10.44;80.26
34712;BME280;20941;42.408;25.634;2022-10-16T00:26:30;100271.34;;;10.44;80.05
34712;BME280;20941;42.408;25.634;2022-10-16T00:28:56;100275.88;;;10.40;80.21
34712;BME280;20941;42.408;25.634;2022-10-16T00:31:22;100269.09;;;10.47;79.87
34712;BME280;20941;42.408;25.634;2022-10-16T00:33:47;100273.59;;;10.48;79.66
34712;BME280;20941;42.408;25.634;2022-10-16T00:36:14;100264.06;;;10.43;79.75
34712;BME280;20941;42.408;25.634;2022-10-16T00:38:40;100266.91;;;10.38;79.91
34712;BME280;20941;42.408;25.634;2022-10-16T00:41:06;100271.41;;;10.34;79.98
34712;BME280;20941;42.408;25.634;2022-10-16T00:43:43;100272.81;;;10.32;80.14
34712;BME280;20941;42.408;25.634;2022-10-16T00:46:10;100275.69;;;10.26;80.36
34712;BME280;20941;42.408;25.634;2022-10-16T00:48:38;100276.22;;;10.28;80.20
34712;BME280;20941;42.408;25.634;2022-10-16T00:51:04;100286.66;;;10.23;80.54
34712;BME280;20941;42.408;25.634;2022-10-16T00:53:29;100278.19;;;10.28;80.47
34712;BME280;20941;42.408;25.634;2022-10-16T00:55:55;100282.94;;;10.33;80.06
34712;BME280;20941;42.408;25.634;2022-10-16T00:58:20;100283.25;;;10.36;79.88
34712;BME280;20941;42.408;25.634;2022-10-16T01:00:46;100287.97;;;10.36;79.85
34712;BME280;20941;42.408;25.634;2022-10-16T01:03:22;100288.28;;;10.34;79.94
34712;BME280;20941;42.408;25.634;2022-10-16T01:05:49;100287.97;;;10.36;79.56
34712;BME280;20941;42.408;25.634;2022-10-16T01:08:21;100286.88;;;10.37;79.48
34712;BME280;20941;42.408;25.634;2022-10-16T01:10:57;100287.75;;;10.37;79.49
34712;BME280;20941;42.408;25.634;2022-10-16T01:13:33;100288.84;;;10.31;79.68
34712;BME280;20941;42.408;25.634;2022-10-16T01:20:58;100307.50;;;10.17;79.79
34712;BME280;20941;42.408;25.634;2022-10-16T01:31:06;100304.13;;;10.15;79.92
34712;BME280;20941;42.408;25.634;2022-10-16T01:33:43;100304.69;;;10.17;79.68
34712;BME280;20941;42.408;25.634;2022-10-16T01:36:13;100306.38;;;10.18;79.61
34712;BME280;20941;42.408;25.634;2022-10-16T01:38:39;100302.44;;;10.14;79.77
34712;BME280;20941;42.408;25.634;2022-10-16T01:41:09;100300.19;;;10.16;79.62
34712;BME280;20941;42.408;25.634;2022-10-16T01:43:38;100303.56;;;10.12;80.03
34712;BME280;20941;42.408;25.634;2022-10-16T01:46:05;100305.84;;;10.10;79.95
34712;BME280;20941;42.408;25.634;2022-10-16T01:48:31;100308.41;;;10.07;80.18
34712;BME280;20941;42.408;25.634;2022-10-16T01:51:03;100303.66;;;10.02;80.57
34712;BME280;20941;42.408;25.634;2022-10-16T01:53:30;100308.09;;;10.08;80.22
34712;BME280;20941;42.408;25.634;2022-10-16T01:55:56;100307.59;;;10.01;80.55
34712;BME280;20941;42.408;25.634;2022-10-16T01:58:23;100312.38;;;9.95;80.93
34712;BME280;20941;42.408;25.634;2022-10-16T02:00:50;100320.00;;;9.90;81.27
34712;BME280;20941;42.408;25.634;2022-10-16T02:03:17;100314.34;;;9.95;81.17
34712;BME280;20941;42.408;25.634;2022-10-16T02:05:49;100308.75;;;9.95;81.15
34712;BME280;20941;42.408;25.634;2022-10-16T02:08:16;100316.34;;;9.94;81.28
34712;BME280;20941;42.408;25.634;2022-10-16T02:10:42;100308.47;;;9.91;81.34
34712;BME280;20941;42.408;25.634;2022-10-16T02:15:33;100315.56;;;9.78;82.22
34712;BME280;20941;42.408;25.634;2022-10-16T02:17:59;100322.31;;;9.72;82.62
34712;BME280;20941;42.408;25.634;2022-10-16T02:20:27;100318.38;;;9.73;82.86
34712;BME280;20941;42.408;25.634;2022-10-16T02:22:53;100322.88;;;9.69;82.93
34712;BME280;20941;42.408;25.634;2022-10-16T02:25:27;100324.31;;;9.67;83.12
34712;BME280;20941;42.408;25.634;2022-10-16T02:32:45;100331.91;;;9.61;83.95
34712;BME280;20941;42.408;25.634;2022-10-16T02:35:12;100335.81;;;9.60;84.09
34712;BME280;20941;42.408;25.634;2022-10-16T02:37:38;100336.41;;;9.57;83.97
34712;BME280;20941;42.408;25.634;2022-10-16T02:40:05;100319.28;;;9.53;84.14
34712;BME280;20941;42.408;25.634;2022-10-16T02:42:34;100332.50;;;9.47;84.30
34712;BME280;20941;42.408;25.634;2022-10-16T02:45:00;100335.63;;;9.41;84.91
34712;BME280;20941;42.408;25.634;2022-10-16T02:47:25;100338.41;;;9.41;84.90
34712;BME280;20941;42.408;25.634;2022-10-16T02:49:51;100338.97;;;9.48;84.66
34712;BME280;20941;42.408;25.634;2022-10-16T02:52:16;100329.69;;;9.47;84.44
34712;BME280;20941;42.408;25.634;2022-10-16T02:54:41;100322.41;;;9.52;84.10
34712;BME280;20941;42.408;25.634;2022-10-16T02:57:07;100329.41;;;9.54;83.72
34712;BME280;20941;42.408;25.634;2022-10-16T02:59:32;100336.41;;;9.57;83.71
34712;BME280;20941;42.408;25.634;2022-10-16T03:01:58;100340.66;;;9.49;83.94
34712;BME280;20941;42.408;25.634;2022-10-16T03:04:23;100335.63;;;9.36;84.66
34712;BME280;20941;42.408;25.634;2022-10-16T03:06:48;100334.22;;;9.38;84.54
34712;BME280;20941;42.408;25.634;2022-10-16T03:09:14;100338.69;;;9.34;84.19
34712;BME280;20941;42.408;25.634;2022-10-16T03:11:40;100345.47;;;9.07;84.22
34712;BME280;20941;42.408;25.634;2022-10-16T03:14:05;100344.94;;;8.79;83.94
34712;BME280;20941;42.408;25.634;2022-10-16T03:16:31;100355.03;;;8.80;83.19
34712;BME280;20941;42.408;25.634;2022-10-16T03:18:56;100348.56;;;8.75;83.27
34712;BME280;20941;42.408;25.634;2022-10-16T03:21:21;100358.94;;;8.64;83.67
34712;BME280;20941;42.408;25.634;2022-10-16T03:23:47;100355.53;;;8.51;84.64
34712;BME280;20941;42.408;25.634;2022-10-16T03:26:12;100365.56;;;8.27;86.54
34712;BME280;20941;42.408;25.634;2022-10-16T03:28:37;100364.16;;;8.29;87.13
34712;BME280;20941;42.408;25.634;2022-10-16T03:31:03;100362.75;;;8.22;87.68
34712;BME280;20941;42.408;25.634;2022-10-16T03:33:28;100368.88;;;8.13;87.92
34712;BME280;20941;42.408;25.634;2022-10-16T03:35:54;100361.56;;;8.12;88.41
34712;BME280;20941;42.408;25.634;2022-10-16T03:38:20;100364.91;;;8.09;88.26
34712;BME280;20941;42.408;25.634;2022-10-16T03:40:46;100362.09;;;8.04;87.84
34712;BME280;20941;42.408;25.634;2022-10-16T03:43:11;100359.28;;;7.99;88.05
34712;BME280;20941;42.408;25.634;2022-10-16T03:45:37;100371.56;;;7.82;89.45
34712;BME280;20941;42.408;25.634;2022-10-16T03:48:02;100362.00;;;7.83;90.61
34712;BME280;20941;42.408;25.634;2022-10-16T03:50:28;100365.06;;;7.71;90.85
34712;BME280;20941;42.408;25.634;2022-10-16T03:52:54;100371.56;;;7.82;90.32
34712;BME280;20941;42.408;25.634;2022-10-16T03:55:19;100379.84;;;7.62;89.76
34712;BME280;20941;42.408;25.634;2022-10-16T03:57:45;100377.25;;;7.55;90.28
34712;BME280;20941;42.408;25.634;2022-10-16T04:00:10;100391.53;;;7.53;90.02
34712;BME280;20941;42.408;25.634;2022-10-16T04:02:36;100381.75;;;7.56;88.96
34712;BME280;20941;42.408;25.634;2022-10-16T04:05:01;100378.06;;;7.50;88.47
34712;BME280;20941;42.408;25.634;2022-10-16T04:07:27;100381.91;;;7.39;88.57
34712;BME280;20941;42.408;25.634;2022-10-16T04:09:52;100380.28;;;7.43;89.03
34712;BME280;20941;42.408;25.634;2022-10-16T04:12:18;100374.91;;;7.36;89.24
34712;BME280;20941;42.408;25.634;2022-10-16T04:14:43;100370.69;;;7.34;89.26
34712;BME280;20941;42.408;25.634;2022-10-16T04:17:09;100372.38;;;7.35;89.20
34712;BME280;20941;42.408;25.634;2022-10-16T04:19:34;100371.53;;;7.34;89.34
34712;BME280;20941;42.408;25.634;2022-10-16T04:21:59;100369.00;;;7.33;89.39
34712;BME280;20941;42.408;25.634;2022-10-16T04:24:25;100377.09;;;7.29;89.82
34712;BME280;20941;42.408;25.634;2022-10-16T04:26:50;100375.69;;;7.27;89.87
34712;BME280;20941;42.408;25.634;2022-10-16T04:29:15;100380.94;;;7.18;91.33
34712;BME280;20941;42.408;25.634;2022-10-16T04:31:41;100376.22;;;7.23;90.99
34712;BME280;20941;42.408;25.634;2022-10-16T04:34:06;100383.50;;;7.25;90.66
34712;BME280;20941;42.408;25.634;2022-10-16T04:36:31;100385.72;;;7.22;90.29
34712;BME280;20941;42.408;25.634;2022-10-16T04:38:57;100390.72;;;7.15;89.73
34712;BME280;20941;42.408;25.634;2022-10-16T04:41:22;100394.88;;;7.13;90.29
34712;BME280;20941;42.408;25.634;2022-10-16T04:43:48;100394.09;;;7.17;90.09
34712;BME280;20941;42.408;25.634;2022-10-16T04:46:13;100395.09;;;7.06;90.09
34712;BME280;20941;42.408;25.634;2022-10-16T04:48:38;100398.22;;;7.10;90.31
34712;BME280;20941;42.408;25.634;2022-10-16T04:51:04;100403.28;;;7.13;90.43
34712;BME280;20941;42.408;25.634;2022-10-16T04:53:29;100409.19;;;7.16;90.40
34712;BME280;20941;42.408;25.634;2022-10-16T04:55:54;100417.00;;;7.14;90.28
34712;BME280;20941;42.408;25.634;2022-10-16T04:58:21;100408.00;;;7.12;90.28
34712;BME280;20941;42.408;25.634;2022-10-16T05:00:46;100415.53;;;7.06;90.19
34712;BME280;20941;42.408;25.634;2022-10-16T05:03:12;100419.22;;;7.12;90.21
34712;BME280;20941;42.408;25.634;2022-10-16T05:05:41;100424.81;;;7.12;90.37
34712;BME280;20941;42.408;25.634;2022-10-16T05:08:07;100426.50;;;7.13;90.71
34712;BME280;20941;42.408;25.634;2022-10-16T05:10:32;100420.38;;;7.16;90.86
34712;BME280;20941;42.408;25.634;2022-10-16T05:12:57;100430.50;;;7.22;90.93
34712;BME280;20941;42.408;25.634;2022-10-16T05:15:23;100429.97;;;7.31;90.34
34712;BME280;20941;42.408;25.634;2022-10-16T05:17:51;100434.56;;;7.42;90.10
34712;BME280;20941;42.408;25.634;2022-10-16T05:20:17;100433.25;;;7.55;89.36
34712;BME280;20941;42.408;25.634;2022-10-16T05:22:42;100435.28;;;7.65;88.31
34712;BME280;20941;42.408;25.634;2022-10-16T05:25:08;100446.50;;;7.70;87.93
34712;BME280;20941;42.408;25.634;2022-10-16T05:27:33;100441.75;;;7.70;87.10
34712;BME280;20941;42.408;25.634;2022-10-16T05:29:58;100440.97;;;7.80;86.80
34712;BME280;20941;42.408;25.634;2022-10-16T05:32:24;100449.44;;;7.91;86.63
34712;BME280;20941;42.408;25.634;2022-10-16T05:34:50;100450.06;;;8.03;86.16
34712;BME280;20941;42.408;25.634;2022-10-16T05:37:16;100457.66;;;8.08;85.76
34712;BME280;20941;42.408;25.634;2022-10-16T05:39:41;100447.34;;;8.18;86.00
34712;BME280;20941;42.408;25.634;2022-10-16T05:42:06;100457.47;;;8.30;85.91
34712;BME280;20941;42.408;25.634;2022-10-16T05:44:32;100461.47;;;8.44;86.74
34712;BME280;20941;42.408;25.634;2022-10-16T05:46:58;100457.06;;;8.64;86.07
34712;BME280;20941;42.408;25.634;2022-10-16T05:49:23;100460.50;;;8.87;86.64
34712;BME280;20941;42.408;25.634;2022-10-16T05:51:49;100466.16;;;9.12;85.98
34712;BME280;20941;42.408;25.634;2022-10-16T05:54:14;100458.31;;;9.35;85.33
34712;BME280;20941;42.408;25.634;2022-10-16T05:56:39;100461.41;;;9.54;83.07
34712;BME280;20941;42.408;25.634;2022-10-16T05:59:05;100468.38;;;9.83;82.21
34712;BME280;20941;42.408;25.634;2022-10-16T06:01:30;100466.34;;;10.04;80.76
34712;BME280;20941;42.408;25.634;2022-10-16T06:03:56;100470.00;;;10.15;79.15
34712;BME280;20941;42.408;25.634;2022-10-16T06:06:22;100462.69;;;10.14;78.89
34712;BME280;20941;42.408;25.634;2022-10-16T06:08:49;100472.22;;;10.23;79.22
34712;BME280;20941;42.408;25.634;2022-10-16T06:11:16;100469.66;;;10.32;78.29
34712;BME280;20941;42.408;25.634;2022-10-16T06:13:42;100484.25;;;10.44;77.87
34712;BME280;20941;42.408;25.634;2022-10-16T06:16:08;100475.50;;;10.56;77.36
34712;BME280;20941;42.408;25.634;2022-10-16T06:18:34;100483.81;;;10.76;77.19
34712;BME280;20941;42.408;25.634;2022-10-16T06:20:59;100471.91;;;10.95;77.31
34712;BME280;20941;42.408;25.634;2022-10-16T06:23:25;100479.41;;;11.10;77.44
34712;BME280;20941;42.408;25.634;2022-10-16T06:25:50;100480.50;;;11.14;78.22
34712;BME280;20941;42.408;25.634;2022-10-16T06:28:16;100488.09;;;11.14;78.63
34712;BME280;20941;42.408;25.634;2022-10-16T06:30:41;100489.75;;;11.20;79.62
34712;BME280;20941;42.408;25.634;2022-10-16T06:33:09;100485.06;;;11.45;79.33
34712;BME280;20941;42.408;25.634;2022-10-16T06:35:34;100500.22;;;11.54;78.64
34712;BME280;20941;42.408;25.634;2022-10-16T06:38:00;100491.59;;;11.69;78.24
34712;BME280;20941;42.408;25.634;2022-10-16T06:40:25;100500.47;;;11.87;77.38
34712;BME280;20941;42.408;25.634;2022-10-16T06:42:51;100490.84;;;11.88;76.12
34712;BME280;20941;42.408;25.634;2022-10-16T06:45:19;100497.00;;;12.00;75.43
34712;BME280;20941;42.408;25.634;2022-10-16T06:47:44;100504.38;;;11.91;74.32
34712;BME280;20941;42.408;25.634;2022-10-16T06:50:10;100502.09;;;11.93;74.49
34712;BME280;20941;42.408;25.634;2022-10-16T06:52:35;100505.72;;;11.99;74.50
34712;BME280;20941;42.408;25.634;2022-10-16T06:55:00;100511.03;;;12.06;74.31
34712;BME280;20941;42.408;25.634;2022-10-16T06:57:27;100506.97;;;12.17;74.39
34712;BME280;20941;42.408;25.634;2022-10-16T06:59:53;100510.81;;;12.26;74.33
34712;BME280;20941;42.408;25.634;2022-10-16T07:02:19;100516.22;;;12.47;73.68
34712;BME280;20941;42.408;25.634;2022-10-16T07:04:44;100509.84;;;12.60;72.84
34712;BME280;20941;42.408;25.634;2022-10-16T07:07:09;100517.50;;;12.79;71.70
34712;BME280;20941;42.408;25.634;2022-10-16T07:09:35;100518.44;;;12.93;70.39
34712;BME280;20941;42.408;25.634;2022-10-16T07:12:00;100518.09;;;13.00;69.48
34712;BME280;20941;42.408;25.634;2022-10-16T07:14:26;100519.75;;;13.20;68.65
34712;BME280;20941;42.408;25.634;2022-10-16T07:16:51;100516.41;;;13.37;67.56
34712;BME280;20941;42.408;25.634;2022-10-16T07:19:17;100514.38;;;13.43;67.27
34712;BME280;20941;42.408;25.634;2022-10-16T07:21:43;100509.81;;;13.61;64.21
34712;BME280;20941;42.408;25.634;2022-10-16T07:24:13;100506.78;;;13.90;61.37
34712;BME280;20941;42.408;25.634;2022-10-16T07:26:39;100508.75;;;14.23;59.47
34712;BME280;20941;42.408;25.634;2022-10-16T07:29:06;100512.53;;;14.46;58.47
34712;BME280;20941;42.408;25.634;2022-10-16T07:31:31;100494.06;;;14.63;57.51
34712;BME280;20941;42.408;25.634;2022-10-16T07:33:57;100501.63;;;14.81;56.21
34712;BME280;20941;42.408;25.634;2022-10-16T07:36:23;100489.69;;;14.84;55.41
34712;BME280;20941;42.408;25.634;2022-10-16T07:38:48;100492.38;;;15.03;56.82
34712;BME280;20941;42.408;25.634;2022-10-16T07:41:15;100489.09;;;15.10;57.06
34712;BME280;20941;42.408;25.634;2022-10-16T07:43:40;100492.41;;;15.26;56.58
34712;BME280;20941;42.408;25.634;2022-10-16T07:46:10;100496.47;;;15.34;55.46
34712;BME280;20941;42.408;25.634;2022-10-16T07:48:35;100489.91;;;15.47;55.78
34712;BME280;20941;42.408;25.634;2022-10-16T07:51:02;100499.72;;;15.64;54.74
34712;BME280;20941;42.408;25.634;2022-10-16T07:53:28;100488.59;;;15.67;53.69
34712;BME280;20941;42.408;25.634;2022-10-16T07:55:57;100499.97;;;15.76;53.62
34712;BME280;20941;42.408;25.634;2022-10-16T07:58:22;100493.75;;;15.88;52.97
34712;BME280;20941;42.408;25.634;2022-10-16T08:00:48;100494.97;;;15.96;53.03
34712;BME280;20941;42.408;25.634;2022-10-16T08:03:13;100495.19;;;16.08;52.35
34712;BME280;20941;42.408;25.634;2022-10-16T08:05:39;100489.00;;;16.06;51.49
34712;BME280;20941;42.408;25.634;2022-10-16T08:08:04;100494.69;;;16.06;51.22
34712;BME280;20941;42.408;25.634;2022-10-16T08:10:29;100483.84;;;16.08;50.14
34712;BME280;20941;42.408;25.634;2022-10-16T08:12:55;100491.63;;;16.25;50.54
34712;BME280;20941;42.408;25.634;2022-10-16T08:15:20;100492.63;;;16.29;49.17
34712;BME280;20941;42.408;25.634;2022-10-16T08:17:59;100484.97;;;16.30;47.82
34712;BME280;20941;42.408;25.634;2022-10-16T08:20:25;100491.13;;;16.32;47.88
34712;BME280;20941;42.408;25.634;2022-10-16T08:22:51;100496.16;;;16.35;47.17
34712;BME280;20941;42.408;25.634;2022-10-16T08:25:16;100489.75;;;16.20;46.77
34712;BME280;20941;42.408;25.634;2022-10-16T08:27:42;100484.06;;;16.20;46.58
34712;BME280;20941;42.408;25.634;2022-10-16T08:30:07;100481.31;;;15.98;46.83
34712;BME280;20941;42.408;25.634;2022-10-16T08:32:33;100479.72;;;16.14;46.57
34712;BME280;20941;42.408;25.634;2022-10-16T08:34:58;100485.22;;;16.19;46.43
34712;BME280;20941;42.408;25.634;2022-10-16T08:37:24;100478.13;;;16.31;46.22
34712;BME280;20941;42.408;25.634;2022-10-16T08:39:50;100483.50;;;16.41;46.09
34712;BME280;20941;42.408;25.634;2022-10-16T08:42:19;100476.31;;;16.44;45.78
34712;BME280;20941;42.408;25.634;2022-10-16T08:44:56;100482.56;;;16.55;46.21
34712;BME280;20941;42.408;25.634;2022-10-16T08:47:31;100482.06;;;16.61;45.97
34712;BME280;20941;42.408;25.634;2022-10-16T08:50:02;100480.75;;;16.67;45.95
34712;BME280;20941;42.408;25.634;2022-10-16T08:52:34;100479.75;;;16.72;45.87
34712;BME280;20941;42.408;25.634;2022-10-16T08:55:00;100480.00;;;16.93;46.12
34712;BME280;20941;42.408;25.634;2022-10-16T08:57:26;100482.69;;;16.98;45.44
34712;BME280;20941;42.408;25.634;2022-10-16T08:59:52;100478.53;;;17.13;45.06
34712;BME280;20941;42.408;25.634;2022-10-16T09:02:23;100485.38;;;17.21;44.49
34712;BME280;20941;42.408;25.634;2022-10-16T09:04:54;100487.56;;;17.24;43.54
34712;BME280;20941;42.408;25.634;2022-10-16T09:18:09;100489.72;;;17.01;43.64
34712;BME280;20941;42.408;25.634;2022-10-16T09:20:30;100487.88;;;17.14;43.88
34712;BME280;20941;42.408;25.634;2022-10-16T09:23:19;100488.91;;;17.27;43.45
34712;BME280;20941;42.408;25.634;2022-10-16T09:25:46;100480.56;;;17.30;43.19
34712;BME280;20941;42.408;25.634;2022-10-16T09:28:13;100483.06;;;17.32;43.32
34712;BME280;20941;42.408;25.634;2022-10-16T09:30:38;100487.41;;;17.38;42.43
34712;BME280;20941;42.408;25.634;2022-10-16T09:33:04;100481.88;;;17.33;42.75
34712;BME280;20941;42.408;25.634;2022-10-16T09:35:43;100471.34;;;17.33;42.83
34712;BME280;20941;42.408;25.634;2022-10-16T09:38:09;100472.53;;;17.41;42.65
34712;BME280;20941;42.408;25.634;2022-10-16T09:40:45;100477.53;;;17.44;42.71
34712;BME280;20941;42.408;25.634;2022-10-16T09:43:27;100478.22;;;17.41;43.02
34712;BME280;20941;42.408;25.634;2022-10-16T09:46:00;100470.16;;;17.43;42.73
34712;BME280;20941;42.408;25.634;2022-10-16T09:48:46;100473.66;;;17.58;42.86
34712;BME280;20941;42.408;25.634;2022-10-16T09:51:31;100464.94;;;17.80;42.96
34712;BME280;20941;42.408;25.634;2022-10-16T09:56:33;100458.53;;;17.92;43.66
34712;BME280;20941;42.408;25.634;2022-10-16T09:59:00;100469.41;;;18.08;44.23
34712;BME280;20941;42.408;25.634;2022-10-16T10:01:36;100452.19;;;18.04;43.97
34712;BME280;20941;42.408;25.634;2022-10-16T10:04:03;100443.09;;;18.20;43.58
34712;BME280;20941;42.408;25.634;2022-10-16T10:06:33;100430.66;;;18.33;43.36
34712;BME280;20941;42.408;25.634;2022-10-16T10:11:55;100424.56;;;18.43;43.20
34712;BME280;20941;42.408;25.634;2022-10-16T10:14:30;100428.19;;;18.53;42.45
34712;BME280;20941;42.408;25.634;2022-10-16T10:17:29;100426.53;;;18.52;42.61
34712;BME280;20941;42.408;25.634;2022-10-16T10:19:57;100430.91;;;18.49;43.64
34712;BME280;20941;42.408;25.634;2022-10-16T10:22:30;100436.44;;;18.46;43.89
34712;BME280;20941;42.408;25.634;2022-10-16T10:24:57;100431.63;;;18.37;44.07
34712;BME280;20941;42.408;25.634;2022-10-16T10:27:28;100437.63;;;18.44;43.94
34712;BME280;20941;42.408;25.634;2022-10-16T10:43:10;100411.03;;;18.91;41.12
34712;BME280;20941;42.408;25.634;2022-10-16T10:45:41;100404.97;;;18.93;39.79
34712;BME280;20941;42.408;25.634;2022-10-16T10:48:20;100407.50;;;18.95;41.68
34712;BME280;20941;42.408;25.634;2022-10-16T10:56:50;100403.34;;;18.83;41.96
34712;BME280;20941;42.408;25.634;2022-10-16T11:06:48;100398.38;;;19.01;41.67
34712;BME280;20941;42.408;25.634;2022-10-16T11:09:18;100394.06;;;18.95;41.45
34712;BME280;20941;42.408;25.634;2022-10-16T11:12:04;100396.84;;;19.04;41.47
34712;BME280;20941;42.408;25.634;2022-10-16T11:16:58;100390.47;;;19.07;40.29
34712;BME280;20941;42.408;25.634;2022-10-16T11:22:11;100389.75;;;19.10;41.09
34712;BME280;20941;42.408;25.634;2022-10-16T11:27:32;100388.22;;;19.13;41.52
34712;BME280;20941;42.408;25.634;2022-10-16T11:30:00;100393.25;;;19.16;40.83
34712;BME280;20941;42.408;25.634;2022-10-16T11:32:42;100397.03;;;19.20;40.70
34712;BME280;20941;42.408;25.634;2022-10-16T11:35:15;100398.66;;;19.08;41.26
34712;BME280;20941;42.408;25.634;2022-10-16T11:37:44;100396.38;;;19.02;41.05
34712;BME280;20941;42.408;25.634;2022-10-16T11:42:41;100397.41;;;19.18;40.67
34712;BME280;20941;42.408;25.634;2022-10-16T11:45:17;100401.03;;;19.28;40.64
34712;BME280;20941;42.408;25.634;2022-10-16T11:47:50;100398.50;;;19.26;40.42
34712;BME280;20941;42.408;25.634;2022-10-16T11:55:52;100394.47;;;19.27;40.65
34712;BME280;20941;42.408;25.634;2022-10-16T11:58:20;100386.69;;;19.36;40.07
34712;BME280;20941;42.408;25.634;2022-10-16T12:00:59;100389.41;;;19.33;40.02
34712;BME280;20941;42.408;25.634;2022-10-16T12:08:48;100387.66;;;19.53;39.62
34712;BME280;20941;42.408;25.634;2022-10-16T12:11:23;100387.44;;;19.58;39.70
34712;BME280;20941;42.408;25.634;2022-10-16T12:13:49;100389.13;;;19.59;39.42
34712;BME280;20941;42.408;25.634;2022-10-16T12:18:40;100388.19;;;19.67;38.50
34712;BME280;20941;42.408;25.634;2022-10-16T12:21:06;100395.59;;;19.81;38.53
34712;BME280;20941;42.408;25.634;2022-10-16T12:23:47;100402.28;;;19.85;37.94
34712;BME280;20941;42.408;25.634;2022-10-16T12:26:13;100395.16;;;19.91;38.09
34712;BME280;20941;42.408;25.634;2022-10-16T12:28:38;100400.88;;;19.91;38.02
34712;BME280;20941;42.408;25.634;2022-10-16T12:31:06;100404.91;;;19.90;38.06
34712;BME280;20941;42.408;25.634;2022-10-16T12:33:34;100402.72;;;19.75;38.07
34712;BME280;20941;42.408;25.634;2022-10-16T12:36:01;100410.38;;;19.83;37.80
34712;BME280;20941;42.408;25.634;2022-10-16T12:38:33;100395.16;;;19.91;37.49
34712;BME280;20941;42.408;25.634;2022-10-16T12:41:02;100398.38;;;19.90;37.51
34712;BME280;20941;42.408;25.634;2022-10-16T12:43:41;100402.78;;;19.87;36.56
34712;BME280;20941;42.408;25.634;2022-10-16T12:48:35;100405.75;;;19.91;36.66
34712;BME280;20941;42.408;25.634;2022-10-16T12:51:11;100405.84;;;19.82;37.04
34712;BME280;20941;42.408;25.634;2022-10-16T12:53:36;100407.84;;;19.81;36.89
34712;BME280;20941;42.408;25.634;2022-10-16T12:58:43;100412.16;;;19.87;36.15
34712;BME280;20941;42.408;25.634;2022-10-16T13:04:02;100409.44;;;19.91;36.05
34712;BME280;20941;42.408;25.634;2022-10-16T13:06:45;100410.63;;;19.90;36.61
34712;BME280;20941;42.408;25.634;2022-10-16T13:11:52;100414.22;;;19.99;36.28
34712;BME280;20941;42.408;25.634;2022-10-16T13:22:03;100418.63;;;20.09;36.31
34712;BME280;20941;42.408;25.634;2022-10-16T13:24:52;100420.19;;;20.07;36.11
34712;BME280;20941;42.408;25.634;2022-10-16T13:32:34;100413.28;;;20.20;35.48
34712;BME280;20941;42.408;25.634;2022-10-16T13:34:59;100414.72;;;20.14;35.19
34712;BME280;20941;42.408;25.634;2022-10-16T13:37:26;100407.09;;;20.18;35.02
34712;BME280;20941;42.408;25.634;2022-10-16T13:40:02;100409.97;;;20.18;35.20
34712;BME280;20941;42.408;25.634;2022-10-16T13:42:32;100411.97;;;20.05;35.14
34712;BME280;20941;42.408;25.634;2022-10-16T13:44:58;100410.06;;;19.97;35.27
34712;BME280;20941;42.408;25.634;2022-10-16T13:47:25;100412.78;;;20.06;35.28
34712;BME280;20941;42.408;25.634;2022-10-16T13:50:01;100406.50;;;20.12;35.11
34712;BME280;20941;42.408;25.634;2022-10-16T13:52:27;100427.69;;;20.11;36.69
34712;BME280;20941;42.408;25.634;2022-10-16T13:54:52;100425.88;;;20.07;36.79
34712;BME280;20941;42.408;25.634;2022-10-16T13:57:18;100428.00;;;19.97;36.44
34712;BME280;20941;42.408;25.634;2022-10-16T13:59:47;100430.53;;;19.78;37.36
34712;BME280;20941;42.408;25.634;2022-10-16T14:04:44;100427.19;;;19.63;37.75
34712;BME280;20941;42.408;25.634;2022-10-16T14:07:13;100427.06;;;19.60;38.14
34712;BME280;20941;42.408;25.634;2022-10-16T14:09:39;100421.72;;;19.70;38.05
34712;BME280;20941;42.408;25.634;2022-10-16T14:12:08;100430.97;;;19.55;38.19
34712;BME280;20941;42.408;25.634;2022-10-16T14:14:42;100422.16;;;19.60;38.46
34712;BME280;20941;42.408;25.634;2022-10-16T14:17:14;100432.97;;;19.54;38.66
34712;BME280;20941;42.408;25.634;2022-10-16T14:19:40;100440.44;;;19.47;39.13
34712;BME280;20941;42.408;25.634;2022-10-16T14:22:26;100448.03;;;19.43;39.24
34712;BME280;20941;42.408;25.634;2022-10-16T14:24:50;100442.72;;;19.32;39.16
34712;BME280;20941;42.408;25.634;2022-10-16T14:27:32;100440.66;;;19.20;39.50
34712;BME280;20941;42.408;25.634;2022-10-16T14:30:17;100448.03;;;19.21;39.64
34712;BME280;20941;42.408;25.634;2022-10-16T14:32:52;100450.25;;;19.16;39.79
34712;BME280;20941;42.408;25.634;2022-10-16T14:35:22;100453.19;;;19.07;39.93
34712;BME280;20941;42.408;25.634;2022-10-16T14:37:51;100462.56;;;19.07;40.16
34712;BME280;20941;42.408;25.634;2022-10-16T14:40:16;100461.81;;;18.98;40.30